Gipsy, Missouri
Current Conditions -  °F | °C
As of 11:53 AM on Monday 22 Dec 2014 (Local Time) from KPOF Reporting Station
Light Rain Light Rain  
Wind Chill: 50°   Ceiling: 400
Heat Index: 50°   Visibility: 4mi
Dew Point: 47°   Wind: 12mph
Humidity: 89%   Direction: 160°SSE
Pressure: 29.67"   Gusts: NA
Location:  37.15°N, 90.18°W
Report Text: KPOF 221753Z AUTO 16010KT 4SM -RA BR OVC004 10/08 A2967 RMK AO2 RAB08 SLP047 P0002 60018 T01000083 10100 20067 58033
Loading
Personal Weather Stations






























Interactive Weather Map New forecast layout! Learn more

10-Day Weather Forecast

Advertisements
Track Severe Weather on mobile